Santa Lucia — A8IP5 — position and weather

sailwx.info

Track history (hours):
 
Tides and Currents Weather Stations Pressure Air Temp Water Temp Dewpoint Dewpoint Depression Visibility Wind Speed Wind Dir Waves Ship Positions

Santa Lucia

Last reported at 2017-Mar-23 15:33 UTC. Time now 2017-Mar-25 01:59 UTC.
Position N 49°43' W 003°47'.

Length 143 m; beam 22 m.

Type: Cargo ship. MMSI: 636091017.

Date/timePositionNaut miles runAvg speedWind from/ knotsBaromVisibWave heightAir tempDewpointWater temp
2017-Mar-23 15:33N 49°43' W 003°47'1919.2
2017-Mar-23 14:33N 49°52' W 003°21'1919.2
2017-Mar-23 13:34N 50°01' W 002°55'4120.2
2017-Mar-23 11:34N 50°12' W 001°54'2019.6
2017-Mar-23 10:33N 50°17' W 001°24'2912.2
2017-Mar-23 08:12N 50°25' W 000°41'710.9
2017-Mar-23 07:31N 50°27' W 000°30'1010.6
2017-Mar-23 06:33N 50°30' W 000°14'1010.3
2017-Mar-23 05:33N 50°33' E 000°01'10 9.9
2017-Mar-23 04:34N 50°35' E 000°16'10 9.7
2017-Mar-23 03:34N 50°38' E 000°31'9 9.2
2017-Mar-23 02:33N 50°43' E 000°43'8 7.9
2017-Mar-23 01:33N 50°47' E 000°54'8 8.2
2017-Mar-23 00:33N 50°52' E 001°04'1616.4
2017-Mar-22 23:33N 51°03' E 001°24'1716.7
2017-Mar-22 22:34N 51°13' E 001°45'1515.5
2017-Mar-22 21:34N 51°25' E 002°01'1615.8
2017-Mar-22 20:33N 51°22' E 002°26'1414.4
2017-Mar-22 19:33N 51°22' E 002°49'1615.7
2017-Mar-22 18:33N 51°25' E 003°14'1515.2
2017-Mar-22 17:33N 51°26' E 003°38'3 0.3
2017-Mar-22 07:32N 51°27' E 003°43'7 7.4
2017-Mar-22 06:33N 51°27' E 003°32'1212.3
2017-Mar-22 05:33N 51°38' E 003°21'1111.0
2017-Mar-22 04:32N 51°48' E 003°15'1717.8
2017-Mar-22 03:33N 52°04' E 003°26'30617.0
2017-Mar-21 09:33N 56°35' E 007°30'1616.3
2017-Mar-21 08:33N 56°48' E 007°47'10815.4
2017-Mar-21 01:33N 57°48' E 010°33'1515.1
2017-Mar-21 00:33N 57°43' E 010°59'1616.3
2017-Mar-20 23:33N 57°31' E 011°22'1717.1
2017-Mar-20 22:34N 57°16' E 011°36'1918.0
2017-Mar-20 21:31N 56°59' E 011°46'5317.4
2017-Mar-20 18:30N 56°10' E 012°25'1616.6
2017-Mar-20 17:34N 55°58' E 012°42'1514.9
2017-Mar-20 16:33N 55°43' E 012°41'1212.1
2017-Mar-20 15:33N 55°31' E 012°43'1312.8
2017-Mar-20 14:34N 55°19' E 012°40'1818.2
2017-Mar-20 13:33N 55°15' E 013°11'2019.9
2017-Mar-20 12:33N 55°14' E 013°46'1918.9
2017-Mar-20 11:33N 55°16' E 014°19'1919.6
2017-Mar-20 10:33N 55°29' E 014°45'2019.6
2017-Mar-20 09:33N 55°38' E 015°15'2019.8
2017-Mar-20 08:33N 55°49' E 015°45'2019.9
2017-Mar-20 07:33N 55°58' E 016°16'2019.7
2017-Mar-20 06:33N 56°10' E 016°45'26415.3
2017-Mar-19 13:23N 59°25' E 022°17'2319.5
2017-Mar-19 12:11N 59°35' E 022°59'1419.8
2017-Mar-19 11:28N 59°39' E 023°25'9819.8
2017-Mar-19 06:32N 60°01' E 026°35'1818.4
2017-Mar-19 05:33N 60°02' E 027°10'1817.5
2017-Mar-19 04:33N 60°11' E 027°41'1413.9
2017-Mar-19 03:33N 60°09' E 028°09'1414.5
2017-Mar-19 02:33N 60°03' E 028°35'1413.2
2017-Mar-19 01:30N 60°02' E 029°03'14 9.9
2017-Mar-19 00:04N 60°01' E 029°31'1 2.2
2017-Mar-18 23:33N 60°01' E 029°33'10 9.8
2017-Mar-18 22:33N 59°57' E 029°51'10 9.6
2017-Mar-18 21:33N 59°53' E 030°09'3 3.0
2017-Mar-18 20:33N 59°55' E 030°14'0 0.2
2017-Mar-18 19:26N 59°55' E 030°14'0 0.0
2017-Mar-18 18:29N 59°55' E 030°14'0 0.0
2017-Mar-18 17:32N 59°55' E 030°14'0 0.0
2017-Mar-18 16:32N 59°55' E 030°14'0 0.0
2017-Mar-18 15:31N 59°55' E 030°14'0 0.0
2017-Mar-18 14:30N 59°55' E 030°14'0 0.0
2017-Mar-18 13:32N 59°55' E 030°14'0 0.0
2017-Mar-18 12:30N 59°55' E 030°14'0 0.0
2017-Mar-18 11:33N 59°55' E 030°14'0 0.0
2017-Mar-18 10:33N 59°55' E 030°14'0 0.0
2017-Mar-18 09:26N 59°55' E 030°14'0 0.0
2017-Mar-18 08:27N 59°55' E 030°14'0 0.0
2017-Mar-18 07:31N 59°55' E 030°14'0 0.0
2017-Mar-18 06:28N 59°55' E 030°14'0 0.0
2017-Mar-18 05:26N 59°55' E 030°14'0 0.0
2017-Mar-18 04:31N 59°55' E 030°14'0 0.0
2017-Mar-18 03:32N 59°55' E 030°14'0 0.0
2017-Mar-18 02:29N 59°55' E 030°14'0 0.0
2017-Mar-18 01:31N 59°55' E 030°14'0 0.0
2017-Mar-18 00:32N 59°55' E 030°14'0 0.0
2017-Mar-17 23:31N 59°55' E 030°14'0 0.0
2017-Mar-17 22:27N 59°55' E 030°14'0 0.0
2017-Mar-17 21:26N 59°55' E 030°14'0 0.0
2017-Mar-17 20:12N 59°55' E 030°14'0 0.0
2017-Mar-17 19:31N 59°55' E 030°14'0 0.0
2017-Mar-17 18:29N 59°55' E 030°14'0 0.0
2017-Mar-17 17:33N 59°55' E 030°14'0 0.0
2017-Mar-17 16:26N 59°55' E 030°14'0 0.0
2017-Mar-17 15:31N 59°55' E 030°14'0 0.0
2017-Mar-17 14:32N 59°55' E 030°14'0 0.0
2017-Mar-17 13:33N 59°55' E 030°14'0 0.0
2017-Mar-17 12:29N 59°55' E 030°14'0 0.0
2017-Mar-17 11:32N 59°55' E 030°14'0 0.0
2017-Mar-17 10:30N 59°55' E 030°14'0 0.0
2017-Mar-17 09:31N 59°55' E 030°14'0 0.0
2017-Mar-17 08:26N 59°55' E 030°14'0 0.0
2017-Mar-17 07:32N 59°55' E 030°14'0 0.0
2017-Mar-17 06:29N 59°55' E 030°14'0 0.0
2017-Mar-17 05:33N 59°55' E 030°14'0 0.0
2017-Mar-17 04:32N 59°55' E 030°14'0 0.0
2017-Mar-17 03:33N 59°55' E 030°14'0 0.0
2017-Mar-17 02:29N 59°55' E 030°14'0 0.0
2017-Mar-17 01:32N 59°55' E 030°14'0 0.0
2017-Mar-17 00:27N 59°55' E 030°14'0 0.0
2017-Mar-16 23:30N 59°55' E 030°14'0 0.0
2017-Mar-16 22:26N 59°55' E 030°14'0 0.0
2017-Mar-16 21:27N 59°55' E 030°14'0 0.0
2017-Mar-16 20:26N 59°55' E 030°14'0 0.0
2017-Mar-16 19:32N 59°55' E 030°14'0 0.0
2017-Mar-16 18:30N 59°55' E 030°14'0 0.0
2017-Mar-16 17:29N 59°55' E 030°14'0 0.0
2017-Mar-16 16:26N 59°55' E 030°14'0 0.0
2017-Mar-16 15:31N 59°55' E 030°14'0 0.0
2017-Mar-16 14:30N 59°55' E 030°14'0 0.0
2017-Mar-16 13:31N 59°55' E 030°14'0 0.0
2017-Mar-16 12:30N 59°55' E 030°14'0 0.0
2017-Mar-16 11:31N 59°55' E 030°14'0 0.0
2017-Mar-16 10:27N 59°55' E 030°14'0 0.0
2017-Mar-16 09:28N 59°55' E 030°14'0 0.0
2017-Mar-16 08:27N 59°55' E 030°14'0 0.0
2017-Mar-16 07:33N 59°55' E 030°14'0 0.0
2017-Mar-16 06:27N 59°55' E 030°14'0 0.0
2017-Mar-16 05:32N 59°55' E 030°14'0 0.0
2017-Mar-16 04:32N 59°55' E 030°14'0 0.0
2017-Mar-16 03:29N 59°55' E 030°14'0 0.0
2017-Mar-16 02:30N 59°55' E 030°14'0 0.0
2017-Mar-16 01:30N 59°55' E 030°14'0 0.0
2017-Mar-16 00:26N 59°55' E 030°14'0 0.0
2017-Mar-15 23:29N 59°55' E 030°14'0 0.0
2017-Mar-15 22:26N 59°55' E 030°14'0 0.0
2017-Mar-15 21:28N 59°55' E 030°14'0 0.0
2017-Mar-15 20:26N 59°55' E 030°14'0 0.0
2017-Mar-15 19:28N 59°55' E 030°14'0 0.0
2017-Mar-15 18:26N 59°55' E 030°14'0 0.0
2017-Mar-15 17:27N 59°55' E 030°14'0 0.0
2017-Mar-15 16:33N 59°55' E 030°14'0 0.0
2017-Mar-15 15:30N 59°55' E 030°14'0 0.0
2017-Mar-15 14:31N 59°55' E 030°14'0 0.0
2017-Mar-15 13:28N 59°55' E 030°14'0 0.0
2017-Mar-15 12:30N 59°55' E 030°14'0 0.0
2017-Mar-15 11:33N 59°55' E 030°14'0 0.0
2017-Mar-15 10:33N 59°55' E 030°14'0 0.0
2017-Mar-15 09:26N 59°55' E 030°14'0 0.0
2017-Mar-15 08:33N 59°55' E 030°14'0 0.0
2017-Mar-15 07:30N 59°55' E 030°14'0 0.0
2017-Mar-15 06:32N 59°55' E 030°14'0 0.0
2017-Mar-15 05:32N 59°55' E 030°14'0 0.0
2017-Mar-15 04:30N 59°55' E 030°14'0 0.0
2017-Mar-15 03:33N 59°55' E 030°14'0 0.0
2017-Mar-15 02:32N 59°55' E 030°14'0 0.0
2017-Mar-15 01:26N 59°55' E 030°14'0 0.0
2017-Mar-15 00:33N 59°55' E 030°14'0 0.0
2017-Mar-14 23:28N 59°55' E 030°14'0 0.0
2017-Mar-14 22:31N 59°55' E 030°14'0 0.0
2017-Mar-14 21:31N 59°55' E 030°14'0 0.0
2017-Mar-14 20:28N 59°55' E 030°14'0 0.0
2017-Mar-14 19:33N 59°55' E 030°14'0 0.0
2017-Mar-14 18:30N 59°55' E 030°14'0 0.0
2017-Mar-14 17:32N 59°55' E 030°14'0 0.0
2017-Mar-14 16:30N 59°55' E 030°14'0 0.0
2017-Mar-14 15:11N 59°55' E 030°14'0 0.0
2017-Mar-14 14:31N 59°55' E 030°14'0 0.0
2017-Mar-14 13:31N 59°55' E 030°14'0 0.0
2017-Mar-14 12:28N 59°55' E 030°14'0 0.0
2017-Mar-14 11:26N 59°55' E 030°14'0 0.0
2017-Mar-14 10:30N 59°55' E 030°14'0 0.0
2017-Mar-14 09:26N 59°55' E 030°14'0 0.0
2017-Mar-14 08:19N 59°55' E 030°14'0 0.0
2017-Mar-14 07:32N 59°55' E 030°14'0 0.0
2017-Mar-14 06:29N 59°55' E 030°14'0 0.0
2017-Mar-14 05:30N 59°55' E 030°14'0 0.0
2017-Mar-14 04:33N 59°55' E 030°14'0 0.0
2017-Mar-13 21:15N 59°55' E 030°14'0 0.0
2017-Mar-13 20:33N 59°55' E 030°14'0 0.0
2017-Mar-13 19:31N 59°55' E 030°14'0 0.0
2017-Mar-13 18:33N 59°55' E 030°14'0 0.0
2017-Mar-13 17:33N 59°55' E 030°14'2 2.2
2017-Mar-13 16:33N 59°53' E 030°11'9 8.7
2017-Mar-13 15:33N 59°56' E 029°55'  
Track history (hours):
 
Tides and Currents Weather Stations Pressure Air Temp Water Temp Dewpoint Dewpoint Depression Visibility Wind Speed Wind Dir Waves Ship Positions

Santa Lucia

Last reported at 2017-Mar-23 15:33 UTC. Time now 2017-Mar-25 01:59 UTC.
Position N 49°43' W 003°47'.

Length 143 m; beam 22 m.

Type: Cargo ship. MMSI: 636091017.

Date/timePositionNaut miles runAvg speedWind from/ knotsBaromVisibWave heightAir tempDewpointWater temp
2017-Mar-23 15:33N 49°43' W 003°47'1919.2
2017-Mar-23 14:33N 49°52' W 003°21'1919.2
2017-Mar-23 13:34N 50°01' W 002°55'4120.2
2017-Mar-23 11:34N 50°12' W 001°54'2019.6
2017-Mar-23 10:33N 50°17' W 001°24'2912.2
2017-Mar-23 08:12N 50°25' W 000°41'710.9
2017-Mar-23 07:31N 50°27' W 000°30'1010.6
2017-Mar-23 06:33N 50°30' W 000°14'1010.3
2017-Mar-23 05:33N 50°33' E 000°01'10 9.9
2017-Mar-23 04:34N 50°35' E 000°16'10 9.7
2017-Mar-23 03:34N 50°38' E 000°31'9 9.2
2017-Mar-23 02:33N 50°43' E 000°43'8 7.9
2017-Mar-23 01:33N 50°47' E 000°54'8 8.2
2017-Mar-23 00:33N 50°52' E 001°04'1616.4
2017-Mar-22 23:33N 51°03' E 001°24'1716.7
2017-Mar-22 22:34N 51°13' E 001°45'1515.5
2017-Mar-22 21:34N 51°25' E 002°01'1615.8
2017-Mar-22 20:33N 51°22' E 002°26'1414.4
2017-Mar-22 19:33N 51°22' E 002°49'1615.7
2017-Mar-22 18:33N 51°25' E 003°14'1515.2
2017-Mar-22 17:33N 51°26' E 003°38'3 0.3
2017-Mar-22 07:32N 51°27' E 003°43'7 7.4
2017-Mar-22 06:33N 51°27' E 003°32'1212.3
2017-Mar-22 05:33N 51°38' E 003°21'1111.0
2017-Mar-22 04:32N 51°48' E 003°15'1717.8
2017-Mar-22 03:33N 52°04' E 003°26'30617.0
2017-Mar-21 09:33N 56°35' E 007°30'1616.3
2017-Mar-21 08:33N 56°48' E 007°47'10815.4
2017-Mar-21 01:33N 57°48' E 010°33'1515.1
2017-Mar-21 00:33N 57°43' E 010°59'1616.3
2017-Mar-20 23:33N 57°31' E 011°22'1717.1
2017-Mar-20 22:34N 57°16' E 011°36'1918.0
2017-Mar-20 21:31N 56°59' E 011°46'5317.4
2017-Mar-20 18:30N 56°10' E 012°25'1616.6
2017-Mar-20 17:34N 55°58' E 012°42'1514.9
2017-Mar-20 16:33N 55°43' E 012°41'1212.1
2017-Mar-20 15:33N 55°31' E 012°43'1312.8
2017-Mar-20 14:34N 55°19' E 012°40'1818.2
2017-Mar-20 13:33N 55°15' E 013°11'2019.9
2017-Mar-20 12:33N 55°14' E 013°46'1918.9
2017-Mar-20 11:33N 55°16' E 014°19'1919.6
2017-Mar-20 10:33N 55°29' E 014°45'2019.6
2017-Mar-20 09:33N 55°38' E 015°15'2019.8
2017-Mar-20 08:33N 55°49' E 015°45'2019.9
2017-Mar-20 07:33N 55°58' E 016°16'2019.7
2017-Mar-20 06:33N 56°10' E 016°45'26415.3
2017-Mar-19 13:23N 59°25' E 022°17'2319.5
2017-Mar-19 12:11N 59°35' E 022°59'1419.8
2017-Mar-19 11:28N 59°39' E 023°25'9819.8
2017-Mar-19 06:32N 60°01' E 026°35'1818.4
2017-Mar-19 05:33N 60°02' E 027°10'1817.5
2017-Mar-19 04:33N 60°11' E 027°41'1413.9
2017-Mar-19 03:33N 60°09' E 028°09'1414.5
2017-Mar-19 02:33N 60°03' E 028°35'1413.2
2017-Mar-19 01:30N 60°02' E 029°03'14 9.9
2017-Mar-19 00:04N 60°01' E 029°31'1 2.2
2017-Mar-18 23:33N 60°01' E 029°33'10 9.8
2017-Mar-18 22:33N 59°57' E 029°51'10 9.6
2017-Mar-18 21:33N 59°53' E 030°09'3 3.0
2017-Mar-18 20:33N 59°55' E 030°14'0 0.2
2017-Mar-18 19:26N 59°55' E 030°14'0 0.0
2017-Mar-18 18:29N 59°55' E 030°14'0 0.0
2017-Mar-18 17:32N 59°55' E 030°14'0 0.0
2017-Mar-18 16:32N 59°55' E 030°14'0 0.0
2017-Mar-18 15:31N 59°55' E 030°14'0 0.0
2017-Mar-18 14:30N 59°55' E 030°14'0 0.0
2017-Mar-18 13:32N 59°55' E 030°14'0 0.0
2017-Mar-18 12:30N 59°55' E 030°14'0 0.0
2017-Mar-18 11:33N 59°55' E 030°14'0 0.0
2017-Mar-18 10:33N 59°55' E 030°14'0 0.0
2017-Mar-18 09:26N 59°55' E 030°14'0 0.0
2017-Mar-18 08:27N 59°55' E 030°14'0 0.0
2017-Mar-18 07:31N 59°55' E 030°14'0 0.0
2017-Mar-18 06:28N 59°55' E 030°14'0 0.0
2017-Mar-18 05:26N 59°55' E 030°14'0 0.0
2017-Mar-18 04:31N 59°55' E 030°14'0 0.0
2017-Mar-18 03:32N 59°55' E 030°14'0 0.0
2017-Mar-18 02:29N 59°55' E 030°14'0 0.0
2017-Mar-18 01:31N 59°55' E 030°14'0 0.0
2017-Mar-18 00:32N 59°55' E 030°14'0 0.0
2017-Mar-17 23:31N 59°55' E 030°14'0 0.0
2017-Mar-17 22:27N 59°55' E 030°14'0 0.0
2017-Mar-17 21:26N 59°55' E 030°14'0 0.0
2017-Mar-17 20:12N 59°55' E 030°14'0 0.0
2017-Mar-17 19:31N 59°55' E 030°14'0 0.0
2017-Mar-17 18:29N 59°55' E 030°14'0 0.0
2017-Mar-17 17:33N 59°55' E 030°14'0 0.0
2017-Mar-17 16:26N 59°55' E 030°14'0 0.0
2017-Mar-17 15:31N 59°55' E 030°14'0 0.0
2017-Mar-17 14:32N 59°55' E 030°14'0 0.0
2017-Mar-17 13:33N 59°55' E 030°14'0 0.0
2017-Mar-17 12:29N 59°55' E 030°14'0 0.0
2017-Mar-17 11:32N 59°55' E 030°14'0 0.0
2017-Mar-17 10:30N 59°55' E 030°14'0 0.0
2017-Mar-17 09:31N 59°55' E 030°14'0 0.0
2017-Mar-17 08:26N 59°55' E 030°14'0 0.0
2017-Mar-17 07:32N 59°55' E 030°14'0 0.0
2017-Mar-17 06:29N 59°55' E 030°14'0 0.0
2017-Mar-17 05:33N 59°55' E 030°14'0 0.0
2017-Mar-17 04:32N 59°55' E 030°14'0 0.0
2017-Mar-17 03:33N 59°55' E 030°14'0 0.0
2017-Mar-17 02:29N 59°55' E 030°14'0 0.0
2017-Mar-17 01:32N 59°55' E 030°14'0 0.0
2017-Mar-17 00:27N 59°55' E 030°14'0 0.0
2017-Mar-16 23:30N 59°55' E 030°14'0 0.0
2017-Mar-16 22:26N 59°55' E 030°14'0 0.0
2017-Mar-16 21:27N 59°55' E 030°14'0 0.0
2017-Mar-16 20:26N 59°55' E 030°14'0 0.0
2017-Mar-16 19:32N 59°55' E 030°14'0 0.0
2017-Mar-16 18:30N 59°55' E 030°14'0 0.0
2017-Mar-16 17:29N 59°55' E 030°14'0 0.0
2017-Mar-16 16:26N 59°55' E 030°14'0 0.0
2017-Mar-16 15:31N 59°55' E 030°14'0 0.0
2017-Mar-16 14:30N 59°55' E 030°14'0 0.0
2017-Mar-16 13:31N 59°55' E 030°14'0 0.0
2017-Mar-16 12:30N 59°55' E 030°14'0 0.0
2017-Mar-16 11:31N 59°55' E 030°14'0 0.0
2017-Mar-16 10:27N 59°55' E 030°14'0 0.0
2017-Mar-16 09:28N 59°55' E 030°14'0 0.0
2017-Mar-16 08:27N 59°55' E 030°14'0 0.0
2017-Mar-16 07:33N 59°55' E 030°14'0 0.0
2017-Mar-16 06:27N 59°55' E 030°14'0 0.0
2017-Mar-16 05:32N 59°55' E 030°14'0 0.0
2017-Mar-16 04:32N 59°55' E 030°14'0 0.0
2017-Mar-16 03:29N 59°55' E 030°14'0 0.0
2017-Mar-16 02:30N 59°55' E 030°14'0 0.0
2017-Mar-16 01:30N 59°55' E 030°14'0 0.0
2017-Mar-16 00:26N 59°55' E 030°14'0 0.0
2017-Mar-15 23:29N 59°55' E 030°14'0 0.0
2017-Mar-15 22:26N 59°55' E 030°14'0 0.0
2017-Mar-15 21:28N 59°55' E 030°14'0 0.0
2017-Mar-15 20:26N 59°55' E 030°14'0 0.0
2017-Mar-15 19:28N 59°55' E 030°14'0 0.0
2017-Mar-15 18:26N 59°55' E 030°14'0 0.0
2017-Mar-15 17:27N 59°55' E 030°14'0 0.0
2017-Mar-15 16:33N 59°55' E 030°14'0 0.0
2017-Mar-15 15:30N 59°55' E 030°14'0 0.0
2017-Mar-15 14:31N 59°55' E 030°14'0 0.0
2017-Mar-15 13:28N 59°55' E 030°14'0 0.0
2017-Mar-15 12:30N 59°55' E 030°14'0 0.0
2017-Mar-15 11:33N 59°55' E 030°14'0 0.0
2017-Mar-15 10:33N 59°55' E 030°14'0 0.0
2017-Mar-15 09:26N 59°55' E 030°14'0 0.0
2017-Mar-15 08:33N 59°55' E 030°14'0 0.0
2017-Mar-15 07:30N 59°55' E 030°14'0 0.0
2017-Mar-15 06:32N 59°55' E 030°14'0 0.0
2017-Mar-15 05:32N 59°55' E 030°14'0 0.0
2017-Mar-15 04:30N 59°55' E 030°14'0 0.0
2017-Mar-15 03:33N 59°55' E 030°14'0 0.0
2017-Mar-15 02:32N 59°55' E 030°14'0 0.0
2017-Mar-15 01:26N 59°55' E 030°14'0 0.0
2017-Mar-15 00:33N 59°55' E 030°14'0 0.0
2017-Mar-14 23:28N 59°55' E 030°14'0 0.0
2017-Mar-14 22:31N 59°55' E 030°14'0 0.0
2017-Mar-14 21:31N 59°55' E 030°14'0 0.0
2017-Mar-14 20:28N 59°55' E 030°14'0 0.0
2017-Mar-14 19:33N 59°55' E 030°14'0 0.0
2017-Mar-14 18:30N 59°55' E 030°14'0 0.0
2017-Mar-14 17:32N 59°55' E 030°14'0 0.0
2017-Mar-14 16:30N 59°55' E 030°14'0 0.0
2017-Mar-14 15:11N 59°55' E 030°14'0 0.0
2017-Mar-14 14:31N 59°55' E 030°14'0 0.0
2017-Mar-14 13:31N 59°55' E 030°14'0 0.0
2017-Mar-14 12:28N 59°55' E 030°14'0 0.0
2017-Mar-14 11:26N 59°55' E 030°14'0 0.0
2017-Mar-14 10:30N 59°55' E 030°14'0 0.0
2017-Mar-14 09:26N 59°55' E 030°14'0 0.0
2017-Mar-14 08:19N 59°55' E 030°14'0 0.0
2017-Mar-14 07:32N 59°55' E 030°14'0 0.0
2017-Mar-14 06:29N 59°55' E 030°14'0 0.0
2017-Mar-14 05:30N 59°55' E 030°14'0 0.0
2017-Mar-14 04:33N 59°55' E 030°14'0 0.0
2017-Mar-13 21:15N 59°55' E 030°14'0 0.0
2017-Mar-13 20:33N 59°55' E 030°14'0 0.0
2017-Mar-13 19:31N 59°55' E 030°14'0 0.0
2017-Mar-13 18:33N 59°55' E 030°14'0 0.0
2017-Mar-13 17:33N 59°55' E 030°14'2 2.2
2017-Mar-13 16:33N 59°53' E 030°11'9 8.7
2017-Mar-13 15:33N 59°56' E 029°55'  

Dump ship's entire track history